Leeton, Missouri
Current Conditions -  °F | °C
As of 5:33 PM on Saturday 20 Dec 2014 (Local Time) from KSZL Reporting Station
Overcast Overcast  
Wind Chill: 33°   Ceiling: 1500
Heat Index: 39°   Visibility: 10mi
Dew Point: 34°   Wind: 9mph
Humidity: 81%   Direction: 200°SSW
Pressure: 30.16"   Gusts: NA
Location:  38.58°N, 93.69°W
Report Text: KSZL 202333Z AUTO 20008KT 10SM OVC015 04/01 A3016 RMK AO2
Loading
Personal Weather Stations






























Interactive Weather Map New forecast layout! Learn more

10-Day Weather Forecast

Advertisements
Track Severe Weather on mobile